sensor_id;sensor_type;location;lat;lon;timestamp;temperature;humidity
26378;DHT22;14078;50.974;6.786;2024-01-15T00:00:51;1.60;99.90
26378;DHT22;14078;50.974;6.786;2024-01-15T00:03:18;1.50;99.90
26378;DHT22;14078;50.974;6.786;2024-01-15T00:05:46;1.50;99.90
26378;DHT22;14078;50.974;6.786;2024-01-15T00:08:13;1.60;99.90
26378;DHT22;14078;50.974;6.786;2024-01-15T00:10:39;1.50;99.90
26378;DHT22;14078;50.974;6.786;2024-01-15T00:13:06;1.50;99.90
26378;DHT22;14078;50.974;6.786;2024-01-15T00:15:33;1.50;99.90
26378;DHT22;14078;50.974;6.786;2024-01-15T00:18:00;1.50;99.90
26378;DHT22;14078;50.974;6.786;2024-01-15T00:20:26;1.50;99.90
26378;DHT22;14078;50.974;6.786;2024-01-15T00:22:54;1.50;99.90
26378;DHT22;14078;50.974;6.786;2024-01-15T00:25:21;1.40;99.90
26378;DHT22;14078;50.974;6.786;2024-01-15T00:27:48;1.40;99.90
26378;DHT22;14078;50.974;6.786;2024-01-15T00:30:15;1.40;99.90
26378;DHT22;14078;50.974;6.786;2024-01-15T00:32:41;1.40;99.90
26378;DHT22;14078;50.974;6.786;2024-01-15T00:35:08;1.30;99.90
26378;DHT22;14078;50.974;6.786;2024-01-15T00:37:35;1.20;99.90
26378;DHT22;14078;50.974;6.786;2024-01-15T00:40:04;1.20;99.90
26378;DHT22;14078;50.974;6.786;2024-01-15T00:42:31;1.20;99.90
26378;DHT22;14078;50.974;6.786;2024-01-15T00:44:57;1.40;99.90
26378;DHT22;14078;50.974;6.786;2024-01-15T00:47:24;1.40;99.90
26378;DHT22;14078;50.974;6.786;2024-01-15T00:49:51;1.40;99.90
26378;DHT22;14078;50.974;6.786;2024-01-15T00:52:17;1.40;99.90
26378;DHT22;14078;50.974;6.786;2024-01-15T00:54:44;1.40;99.90
26378;DHT22;14078;50.974;6.786;2024-01-15T00:57:12;1.40;99.90
26378;DHT22;14078;50.974;6.786;2024-01-15T00:59:39;1.30;99.90
26378;DHT22;14078;50.974;6.786;2024-01-15T01:02:06;1.20;99.90
26378;DHT22;14078;50.974;6.786;2024-01-15T01:04:32;1.20;99.90
26378;DHT22;14078;50.974;6.786;2024-01-15T01:06:59;1.20;99.90
26378;DHT22;14078;50.974;6.786;2024-01-15T01:09:25;1.30;99.90
26378;DHT22;14078;50.974;6.786;2024-01-15T01:11:54;1.20;99.90
26378;DHT22;14078;50.974;6.786;2024-01-15T01:14:22;1.20;99.90
26378;DHT22;14078;50.974;6.786;2024-01-15T01:16:49;1.20;99.90
26378;DHT22;14078;50.974;6.786;2024-01-15T01:19:15;1.30;99.90
26378;DHT22;14078;50.974;6.786;2024-01-15T01:21:42;1.20;99.90
26378;DHT22;14078;50.974;6.786;2024-01-15T01:24:09;1.30;99.90
26378;DHT22;14078;50.974;6.786;2024-01-15T01:26:35;1.30;99.90
26378;DHT22;14078;50.974;6.786;2024-01-15T01:29:02;1.40;99.90
26378;DHT22;14078;50.974;6.786;2024-01-15T01:31:30;1.40;99.90
26378;DHT22;14078;50.974;6.786;2024-01-15T01:33:57;1.40;99.90
26378;DHT22;14078;50.974;6.786;2024-01-15T01:36:23;1.40;99.90
26378;DHT22;14078;50.974;6.786;2024-01-15T01:38:50;1.40;99.90
26378;DHT22;14078;50.974;6.786;2024-01-15T01:41:17;1.40;99.90
26378;DHT22;14078;50.974;6.786;2024-01-15T01:43:44;1.40;99.90
26378;DHT22;14078;50.974;6.786;2024-01-15T01:46:11;1.40;99.90
26378;DHT22;14078;50.974;6.786;2024-01-15T01:48:39;1.40;99.90
26378;DHT22;14078;50.974;6.786;2024-01-15T01:51:07;1.50;99.90
26378;DHT22;14078;50.974;6.786;2024-01-15T01:53:35;1.40;99.90
26378;DHT22;14078;50.974;6.786;2024-01-15T01:56:04;1.50;99.90
26378;DHT22;14078;50.974;6.786;2024-01-15T01:58:32;1.50;99.90
26378;DHT22;14078;50.974;6.786;2024-01-15T02:00:59;1.50;99.90
26378;DHT22;14078;50.974;6.786;2024-01-15T02:03:26;1.60;99.90
26378;DHT22;14078;50.974;6.786;2024-01-15T02:05:55;1.60;99.90
26378;DHT22;14078;50.974;6.786;2024-01-15T02:08:22;1.60;99.90
26378;DHT22;14078;50.974;6.786;2024-01-15T02:10:48;1.60;99.90
26378;DHT22;14078;50.974;6.786;2024-01-15T02:13:14;1.60;99.90
26378;DHT22;14078;50.974;6.786;2024-01-15T02:15:41;1.60;99.90
26378;DHT22;14078;50.974;6.786;2024-01-15T02:18:08;1.60;99.90
26378;DHT22;14078;50.974;6.786;2024-01-15T02:20:35;1.60;99.90
26378;DHT22;14078;50.974;6.786;2024-01-15T02:23:08;1.60;99.90
26378;DHT22;14078;50.974;6.786;2024-01-15T02:25:36;1.60;99.90
26378;DHT22;14078;50.974;6.786;2024-01-15T02:28:04;1.70;99.90
26378;DHT22;14078;50.974;6.786;2024-01-15T02:30:31;1.80;99.90
26378;DHT22;14078;50.974;6.786;2024-01-15T02:32:58;1.60;99.90
26378;DHT22;14078;50.974;6.786;2024-01-15T02:35:25;1.70;99.90
26378;DHT22;14078;50.974;6.786;2024-01-15T02:37:51;1.70;99.90
26378;DHT22;14078;50.974;6.786;2024-01-15T02:40:19;1.70;99.90
26378;DHT22;14078;50.974;6.786;2024-01-15T02:42:46;1.70;99.90
26378;DHT22;14078;50.974;6.786;2024-01-15T02:45:13;1.80;99.90
26378;DHT22;14078;50.974;6.786;2024-01-15T02:47:39;1.80;99.90
26378;DHT22;14078;50.974;6.786;2024-01-15T02:50:07;1.80;99.90
26378;DHT22;14078;50.974;6.786;2024-01-15T02:52:33;1.80;99.90
26378;DHT22;14078;50.974;6.786;2024-01-15T02:55:00;1.70;99.90
26378;DHT22;14078;50.974;6.786;2024-01-15T02:57:28;1.70;99.90
26378;DHT22;14078;50.974;6.786;2024-01-15T02:59:55;1.70;99.90
26378;DHT22;14078;50.974;6.786;2024-01-15T03:02:21;1.70;99.90
26378;DHT22;14078;50.974;6.786;2024-01-15T03:04:48;1.80;99.90
26378;DHT22;14078;50.974;6.786;2024-01-15T03:07:15;1.80;99.90
26378;DHT22;14078;50.974;6.786;2024-01-15T03:09:41;1.70;99.90
26378;DHT22;14078;50.974;6.786;2024-01-15T03:12:08;1.70;99.90
26378;DHT22;14078;50.974;6.786;2024-01-15T03:14:36;1.70;99.90
26378;DHT22;14078;50.974;6.786;2024-01-15T03:17:03;1.80;99.90
26378;DHT22;14078;50.974;6.786;2024-01-15T03:19:30;1.70;99.90
26378;DHT22;14078;50.974;6.786;2024-01-15T03:21:56;1.70;99.90
26378;DHT22;14078;50.974;6.786;2024-01-15T03:24:23;1.70;99.90
26378;DHT22;14078;50.974;6.786;2024-01-15T03:26:50;1.70;99.90
26378;DHT22;14078;50.974;6.786;2024-01-15T03:29:16;1.70;99.90
26378;DHT22;14078;50.974;6.786;2024-01-15T03:31:44;1.80;99.90
26378;DHT22;14078;50.974;6.786;2024-01-15T03:34:11;1.70;99.90
26378;DHT22;14078;50.974;6.786;2024-01-15T03:36:38;1.70;99.90
26378;DHT22;14078;50.974;6.786;2024-01-15T03:39:04;1.70;99.90
26378;DHT22;14078;50.974;6.786;2024-01-15T03:41:31;1.70;99.90
26378;DHT22;14078;50.974;6.786;2024-01-15T03:43:58;1.70;99.90
26378;DHT22;14078;50.974;6.786;2024-01-15T03:46:24;1.70;99.90
26378;DHT22;14078;50.974;6.786;2024-01-15T03:48:52;1.80;99.90
26378;DHT22;14078;50.974;6.786;2024-01-15T03:51:19;1.90;99.90
26378;DHT22;14078;50.974;6.786;2024-01-15T03:53:46;1.90;99.90
26378;DHT22;14078;50.974;6.786;2024-01-15T03:56:13;1.90;99.90
26378;DHT22;14078;50.974;6.786;2024-01-15T03:58:40;1.80;99.90
26378;DHT22;14078;50.974;6.786;2024-01-15T04:01:08;1.80;99.90
26378;DHT22;14078;50.974;6.786;2024-01-15T04:03:35;1.70;99.90
26378;DHT22;14078;50.974;6.786;2024-01-15T04:06:04;1.70;99.90
26378;DHT22;14078;50.974;6.786;2024-01-15T04:08:31;1.70;99.90
26378;DHT22;14078;50.974;6.786;2024-01-15T04:10:57;1.70;99.90
26378;DHT22;14078;50.974;6.786;2024-01-15T04:13:25;1.60;99.90
26378;DHT22;14078;50.974;6.786;2024-01-15T04:15:52;1.50;99.90
26378;DHT22;14078;50.974;6.786;2024-01-15T04:18:18;1.50;99.90
26378;DHT22;14078;50.974;6.786;2024-01-15T04:20:45;1.50;99.90
26378;DHT22;14078;50.974;6.786;2024-01-15T04:23:13;1.50;99.90
26378;DHT22;14078;50.974;6.786;2024-01-15T04:25:40;1.50;99.90
26378;DHT22;14078;50.974;6.786;2024-01-15T04:28:08;1.40;99.90
26378;DHT22;14078;50.974;6.786;2024-01-15T04:30:35;1.50;99.90
26378;DHT22;14078;50.974;6.786;2024-01-15T04:33:02;1.60;99.90
26378;DHT22;14078;50.974;6.786;2024-01-15T04:35:28;1.70;99.90
26378;DHT22;14078;50.974;6.786;2024-01-15T04:37:55;1.80;99.90
26378;DHT22;14078;50.974;6.786;2024-01-15T04:40:23;1.90;99.90
26378;DHT22;14078;50.974;6.786;2024-01-15T04:42:53;2.00;99.90
26378;DHT22;14078;50.974;6.786;2024-01-15T04:45:19;1.80;99.90
26378;DHT22;14078;50.974;6.786;2024-01-15T04:47:48;1.80;99.90
26378;DHT22;14078;50.974;6.786;2024-01-15T04:50:15;1.80;99.90
26378;DHT22;14078;50.974;6.786;2024-01-15T04:52:41;1.80;99.90
26378;DHT22;14078;50.974;6.786;2024-01-15T04:55:08;1.80;99.90
26378;DHT22;14078;50.974;6.786;2024-01-15T04:57:35;1.80;99.90
26378;DHT22;14078;50.974;6.786;2024-01-15T05:00:02;1.80;99.90
26378;DHT22;14078;50.974;6.786;2024-01-15T05:02:30;1.90;99.90
26378;DHT22;14078;50.974;6.786;2024-01-15T05:04:57;1.90;99.90
26378;DHT22;14078;50.974;6.786;2024-01-15T05:07:23;1.80;99.90
26378;DHT22;14078;50.974;6.786;2024-01-15T05:09:50;1.80;99.90
26378;DHT22;14078;50.974;6.786;2024-01-15T05:12:17;1.80;99.90
26378;DHT22;14078;50.974;6.786;2024-01-15T05:14:45;1.80;99.90
26378;DHT22;14078;50.974;6.786;2024-01-15T05:17:11;1.80;99.90
26378;DHT22;14078;50.974;6.786;2024-01-15T05:19:38;1.70;99.90
26378;DHT22;14078;50.974;6.786;2024-01-15T05:22:05;1.70;99.90
26378;DHT22;14078;50.974;6.786;2024-01-15T05:24:31;1.70;99.90
26378;DHT22;14078;50.974;6.786;2024-01-15T05:26:58;1.80;99.90
26378;DHT22;14078;50.974;6.786;2024-01-15T05:29:25;1.80;99.90
26378;DHT22;14078;50.974;6.786;2024-01-15T05:31:53;1.80;99.90
26378;DHT22;14078;50.974;6.786;2024-01-15T05:34:20;1.80;99.90
26378;DHT22;14078;50.974;6.786;2024-01-15T05:36:47;1.90;99.90
26378;DHT22;14078;50.974;6.786;2024-01-15T05:39:14;1.90;99.90
26378;DHT22;14078;50.974;6.786;2024-01-15T05:41:40;1.90;99.90
26378;DHT22;14078;50.974;6.786;2024-01-15T05:44:07;1.80;99.90
26378;DHT22;14078;50.974;6.786;2024-01-15T05:46:34;1.90;99.90
26378;DHT22;14078;50.974;6.786;2024-01-15T05:49:02;1.80;99.90
26378;DHT22;14078;50.974;6.786;2024-01-15T05:51:28;1.80;99.90
26378;DHT22;14078;50.974;6.786;2024-01-15T05:53:55;1.80;99.90
26378;DHT22;14078;50.974;6.786;2024-01-15T05:56:21;1.80;99.90
26378;DHT22;14078;50.974;6.786;2024-01-15T05:58:49;2.00;99.90
26378;DHT22;14078;50.974;6.786;2024-01-15T06:01:16;2.00;99.90
26378;DHT22;14078;50.974;6.786;2024-01-15T06:03:43;2.00;99.90
26378;DHT22;14078;50.974;6.786;2024-01-15T06:06:11;2.10;99.90
26378;DHT22;14078;50.974;6.786;2024-01-15T06:08:37;2.10;99.90
26378;DHT22;14078;50.974;6.786;2024-01-15T06:11:04;2.10;99.90
26378;DHT22;14078;50.974;6.786;2024-01-15T06:13:31;2.20;99.90
26378;DHT22;14078;50.974;6.786;2024-01-15T06:15:58;2.10;99.90
26378;DHT22;14078;50.974;6.786;2024-01-15T06:18:25;2.10;99.90
26378;DHT22;14078;50.974;6.786;2024-01-15T06:20:51;2.10;99.90
26378;DHT22;14078;50.974;6.786;2024-01-15T06:23:19;2.00;99.90
26378;DHT22;14078;50.974;6.786;2024-01-15T06:25:46;2.00;99.90
26378;DHT22;14078;50.974;6.786;2024-01-15T06:28:12;2.10;99.90
26378;DHT22;14078;50.974;6.786;2024-01-15T06:30:39;2.10;99.90
26378;DHT22;14078;50.974;6.786;2024-01-15T06:33:06;2.10;99.90
26378;DHT22;14078;50.974;6.786;2024-01-15T06:35:32;2.10;99.90
26378;DHT22;14078;50.974;6.786;2024-01-15T06:38:00;2.10;99.90
26378;DHT22;14078;50.974;6.786;2024-01-15T06:40:28;2.10;99.90
26378;DHT22;14078;50.974;6.786;2024-01-15T06:42:55;2.20;99.90
26378;DHT22;14078;50.974;6.786;2024-01-15T06:45:21;2.20;99.90
26378;DHT22;14078;50.974;6.786;2024-01-15T06:47:48;2.30;99.90
26378;DHT22;14078;50.974;6.786;2024-01-15T06:50:15;2.20;99.90
26378;DHT22;14078;50.974;6.786;2024-01-15T06:52:41;2.20;99.90
26378;DHT22;14078;50.974;6.786;2024-01-15T06:55:08;2.20;99.90
26378;DHT22;14078;50.974;6.786;2024-01-15T06:57:36;2.20;99.90
26378;DHT22;14078;50.974;6.786;2024-01-15T07:00:03;2.10;99.90
26378;DHT22;14078;50.974;6.786;2024-01-15T07:02:33;2.10;99.90
26378;DHT22;14078;50.974;6.786;2024-01-15T07:04:59;2.10;99.90
26378;DHT22;14078;50.974;6.786;2024-01-15T07:07:26;2.10;99.90
26378;DHT22;14078;50.974;6.786;2024-01-15T07:09:55;2.20;99.90
26378;DHT22;14078;50.974;6.786;2024-01-15T07:12:21;2.20;99.90
26378;DHT22;14078;50.974;6.786;2024-01-15T07:14:49;2.10;99.90
26378;DHT22;14078;50.974;6.786;2024-01-15T07:17:16;2.10;99.90
26378;DHT22;14078;50.974;6.786;2024-01-15T07:19:43;2.10;99.90
26378;DHT22;14078;50.974;6.786;2024-01-15T07:22:09;2.10;99.90
26378;DHT22;14078;50.974;6.786;2024-01-15T07:24:36;2.20;99.90
26378;DHT22;14078;50.974;6.786;2024-01-15T07:27:03;2.20;99.90
26378;DHT22;14078;50.974;6.786;2024-01-15T07:29:30;2.20;99.90
26378;DHT22;14078;50.974;6.786;2024-01-15T07:31:59;2.10;99.90
26378;DHT22;14078;50.974;6.786;2024-01-15T07:34:26;2.10;99.90
26378;DHT22;14078;50.974;6.786;2024-01-15T07:36:53;2.10;99.90
26378;DHT22;14078;50.974;6.786;2024-01-15T07:39:20;2.10;99.90
26378;DHT22;14078;50.974;6.786;2024-01-15T07:41:48;2.20;99.90
26378;DHT22;14078;50.974;6.786;2024-01-15T07:44:14;2.30;99.90
26378;DHT22;14078;50.974;6.786;2024-01-15T07:46:44;2.20;99.90
26378;DHT22;14078;50.974;6.786;2024-01-15T07:49:12;2.20;99.90
26378;DHT22;14078;50.974;6.786;2024-01-15T07:51:39;2.30;99.90
26378;DHT22;14078;50.974;6.786;2024-01-15T07:54:06;2.30;99.90
26378;DHT22;14078;50.974;6.786;2024-01-15T07:56:33;2.40;99.90
26378;DHT22;14078;50.974;6.786;2024-01-15T07:59:00;2.30;99.90
26378;DHT22;14078;50.974;6.786;2024-01-15T08:01:26;2.40;99.90
26378;DHT22;14078;50.974;6.786;2024-01-15T08:03:53;2.30;99.90
26378;DHT22;14078;50.974;6.786;2024-01-15T08:06:22;2.40;99.90
26378;DHT22;14078;50.974;6.786;2024-01-15T08:08:48;2.40;99.90
26378;DHT22;14078;50.974;6.786;2024-01-15T08:11:15;2.30;99.90
26378;DHT22;14078;50.974;6.786;2024-01-15T08:13:42;2.50;99.90
26378;DHT22;14078;50.974;6.786;2024-01-15T08:16:08;2.40;99.90
26378;DHT22;14078;50.974;6.786;2024-01-15T08:18:36;2.50;99.90
26378;DHT22;14078;50.974;6.786;2024-01-15T08:21:03;2.30;99.90
26378;DHT22;14078;50.974;6.786;2024-01-15T08:23:31;2.40;99.90
26378;DHT22;14078;50.974;6.786;2024-01-15T08:25:57;2.40;99.90
26378;DHT22;14078;50.974;6.786;2024-01-15T08:28:24;2.30;99.90
26378;DHT22;14078;50.974;6.786;2024-01-15T08:30:50;2.40;99.90
26378;DHT22;14078;50.974;6.786;2024-01-15T08:33:17;2.40;99.90
26378;DHT22;14078;50.974;6.786;2024-01-15T08:35:44;2.20;99.90
26378;DHT22;14078;50.974;6.786;2024-01-15T08:38:11;2.20;99.90
26378;DHT22;14078;50.974;6.786;2024-01-15T08:40:39;2.10;99.90
26378;DHT22;14078;50.974;6.786;2024-01-15T08:43:05;2.10;99.90
26378;DHT22;14078;50.974;6.786;2024-01-15T08:45:33;2.10;99.90
26378;DHT22;14078;50.974;6.786;2024-01-15T08:47:59;2.10;99.90
26378;DHT22;14078;50.974;6.786;2024-01-15T08:50:26;2.20;99.90
26378;DHT22;14078;50.974;6.786;2024-01-15T08:52:53;2.20;99.90
26378;DHT22;14078;50.974;6.786;2024-01-15T08:55:20;2.20;99.90
26378;DHT22;14078;50.974;6.786;2024-01-15T08:57:49;2.20;99.90
26378;DHT22;14078;50.974;6.786;2024-01-15T09:00:16;2.30;99.90
26378;DHT22;14078;50.974;6.786;2024-01-15T09:02:44;2.30;99.90
26378;DHT22;14078;50.974;6.786;2024-01-15T09:05:10;2.30;99.90
26378;DHT22;14078;50.974;6.786;2024-01-15T09:07:37;2.20;99.90
26378;DHT22;14078;50.974;6.786;2024-01-15T09:10:04;2.20;99.90
26378;DHT22;14078;50.974;6.786;2024-01-15T09:12:32;2.20;99.90
26378;DHT22;14078;50.974;6.786;2024-01-15T09:15:00;2.10;99.90
26378;DHT22;14078;50.974;6.786;2024-01-15T09:17:29;2.00;99.90
26378;DHT22;14078;50.974;6.786;2024-01-15T09:19:56;2.10;99.90
26378;DHT22;14078;50.974;6.786;2024-01-15T09:22:23;2.00;99.90
26378;DHT22;14078;50.974;6.786;2024-01-15T09:24:49;1.90;99.90
26378;DHT22;14078;50.974;6.786;2024-01-15T09:27:16;1.90;99.90
26378;DHT22;14078;50.974;6.786;2024-01-15T09:29:43;1.70;99.90
26378;DHT22;14078;50.974;6.786;2024-01-15T09:32:12;1.70;99.90
26378;DHT22;14078;50.974;6.786;2024-01-15T09:34:39;1.60;99.90
26378;DHT22;14078;50.974;6.786;2024-01-15T09:37:06;1.60;99.90
26378;DHT22;14078;50.974;6.786;2024-01-15T09:39:33;1.60;99.90
26378;DHT22;14078;50.974;6.786;2024-01-15T09:42:00;1.50;99.90
26378;DHT22;14078;50.974;6.786;2024-01-15T09:44:27;1.50;99.90
26378;DHT22;14078;50.974;6.786;2024-01-15T09:46:55;1.50;99.90
26378;DHT22;14078;50.974;6.786;2024-01-15T09:49:23;1.40;99.90
26378;DHT22;14078;50.974;6.786;2024-01-15T09:51:50;1.40;99.90
26378;DHT22;14078;50.974;6.786;2024-01-15T09:54:17;1.30;99.90
26378;DHT22;14078;50.974;6.786;2024-01-15T09:56:45;1.20;99.90
26378;DHT22;14078;50.974;6.786;2024-01-15T09:59:15;1.30;99.90
26378;DHT22;14078;50.974;6.786;2024-01-15T10:01:43;1.30;99.90
26378;DHT22;14078;50.974;6.786;2024-01-15T10:04:09;1.40;99.90
26378;DHT22;14078;50.974;6.786;2024-01-15T10:06:38;1.40;99.90
26378;DHT22;14078;50.974;6.786;2024-01-15T10:09:05;1.50;99.90
26378;DHT22;14078;50.974;6.786;2024-01-15T10:11:33;1.40;99.90
26378;DHT22;14078;50.974;6.786;2024-01-15T10:13:59;1.40;99.90
26378;DHT22;14078;50.974;6.786;2024-01-15T10:16:27;1.40;99.90
26378;DHT22;14078;50.974;6.786;2024-01-15T10:18:54;1.50;99.90
26378;DHT22;14078;50.974;6.786;2024-01-15T10:21:21;1.50;99.90
26378;DHT22;14078;50.974;6.786;2024-01-15T10:23:49;1.60;99.90
26378;DHT22;14078;50.974;6.786;2024-01-15T10:26:16;1.60;99.90
26378;DHT22;14078;50.974;6.786;2024-01-15T10:28:42;1.60;99.90
26378;DHT22;14078;50.974;6.786;2024-01-15T10:31:09;1.60;99.90
26378;DHT22;14078;50.974;6.786;2024-01-15T10:33:36;1.50;99.90
26378;DHT22;14078;50.974;6.786;2024-01-15T10:36:09;1.50;99.90
26378;DHT22;14078;50.974;6.786;2024-01-15T10:38:36;1.60;99.90
26378;DHT22;14078;50.974;6.786;2024-01-15T10:41:04;1.50;99.90
26378;DHT22;14078;50.974;6.786;2024-01-15T10:43:31;1.50;99.90
26378;DHT22;14078;50.974;6.786;2024-01-15T10:46:00;1.40;99.90
26378;DHT22;14078;50.974;6.786;2024-01-15T10:48:27;1.40;99.90
26378;DHT22;14078;50.974;6.786;2024-01-15T10:50:56;1.30;99.90
26378;DHT22;14078;50.974;6.786;2024-01-15T10:53:24;1.30;99.90
26378;DHT22;14078;50.974;6.786;2024-01-15T10:55:51;1.30;99.90
26378;DHT22;14078;50.974;6.786;2024-01-15T10:58:20;1.30;99.90
26378;DHT22;14078;50.974;6.786;2024-01-15T11:00:48;1.30;99.90
26378;DHT22;14078;50.974;6.786;2024-01-15T11:03:16;1.40;99.90
26378;DHT22;14078;50.974;6.786;2024-01-15T11:05:45;1.40;99.90
26378;DHT22;14078;50.974;6.786;2024-01-15T11:08:13;1.40;99.90
26378;DHT22;14078;50.974;6.786;2024-01-15T11:10:44;1.40;99.90
26378;DHT22;14078;50.974;6.786;2024-01-15T11:13:15;1.50;99.90
26378;DHT22;14078;50.974;6.786;2024-01-15T11:15:56;1.60;99.90
26378;DHT22;14078;50.974;6.786;2024-01-15T11:18:23;1.60;99.90
26378;DHT22;14078;50.974;6.786;2024-01-15T11:21:20;1.70;99.90
26378;DHT22;14078;50.974;6.786;2024-01-15T11:23:49;1.80;99.90
26378;DHT22;14078;50.974;6.786;2024-01-15T11:26:34;1.80;99.90
26378;DHT22;14078;50.974;6.786;2024-01-15T11:29:03;1.90;99.90
26378;DHT22;14078;50.974;6.786;2024-01-15T11:31:59;2.00;99.90
26378;DHT22;14078;50.974;6.786;2024-01-15T11:34:52;2.00;99.90
26378;DHT22;14078;50.974;6.786;2024-01-15T11:37:19;1.90;99.90
26378;DHT22;14078;50.974;6.786;2024-01-15T11:39:47;2.00;99.90
26378;DHT22;14078;50.974;6.786;2024-01-15T11:42:14;2.00;99.90
26378;DHT22;14078;50.974;6.786;2024-01-15T11:44:41;2.10;99.90
26378;DHT22;14078;50.974;6.786;2024-01-15T11:47:10;2.10;99.90
26378;DHT22;14078;50.974;6.786;2024-01-15T11:49:58;2.00;99.90
26378;DHT22;14078;50.974;6.786;2024-01-15T11:52:25;2.00;99.90
26378;DHT22;14078;50.974;6.786;2024-01-15T11:54:58;2.00;99.90
26378;DHT22;14078;50.974;6.786;2024-01-15T11:57:37;2.00;99.90
26378;DHT22;14078;50.974;6.786;2024-01-15T12:00:07;2.00;99.90
26378;DHT22;14078;50.974;6.786;2024-01-15T12:02:36;1.90;99.90
26378;DHT22;14078;50.974;6.786;2024-01-15T12:05:03;1.90;99.90
26378;DHT22;14078;50.974;6.786;2024-01-15T12:07:30;2.00;99.90
26378;DHT22;14078;50.974;6.786;2024-01-15T12:09:57;2.00;99.90
26378;DHT22;14078;50.974;6.786;2024-01-15T12:12:27;2.00;99.90
26378;DHT22;14078;50.974;6.786;2024-01-15T12:14:55;2.00;99.90
26378;DHT22;14078;50.974;6.786;2024-01-15T12:17:22;2.10;99.90
26378;DHT22;14078;50.974;6.786;2024-01-15T12:19:50;2.30;99.90
26378;DHT22;14078;50.974;6.786;2024-01-15T12:22:16;2.30;99.90
26378;DHT22;14078;50.974;6.786;2024-01-15T12:24:43;2.40;99.90
26378;DHT22;14078;50.974;6.786;2024-01-15T12:27:10;2.50;99.90
26378;DHT22;14078;50.974;6.786;2024-01-15T12:29:38;2.60;99.90
26378;DHT22;14078;50.974;6.786;2024-01-15T12:32:05;2.40;99.90
26378;DHT22;14078;50.974;6.786;2024-01-15T12:34:33;2.40;99.90
26378;DHT22;14078;50.974;6.786;2024-01-15T12:37:01;2.50;99.90
26378;DHT22;14078;50.974;6.786;2024-01-15T12:39:28;2.40;99.90
26378;DHT22;14078;50.974;6.786;2024-01-15T12:41:54;2.40;99.90
26378;DHT22;14078;50.974;6.786;2024-01-15T12:44:21;2.50;99.90
26378;DHT22;14078;50.974;6.786;2024-01-15T12:46:49;2.60;99.90
26378;DHT22;14078;50.974;6.786;2024-01-15T12:49:15;2.60;99.90
26378;DHT22;14078;50.974;6.786;2024-01-15T12:51:42;2.60;99.90
26378;DHT22;14078;50.974;6.786;2024-01-15T12:54:10;2.60;99.90
26378;DHT22;14078;50.974;6.786;2024-01-15T12:56:37;2.80;99.90
26378;DHT22;14078;50.974;6.786;2024-01-15T12:59:04;2.80;99.90
26378;DHT22;14078;50.974;6.786;2024-01-15T13:01:30;2.70;99.90
26378;DHT22;14078;50.974;6.786;2024-01-15T13:03:57;2.80;99.90
26378;DHT22;14078;50.974;6.786;2024-01-15T13:06:25;2.80;99.90
26378;DHT22;14078;50.974;6.786;2024-01-15T13:08:51;2.80;99.90
26378;DHT22;14078;50.974;6.786;2024-01-15T13:11:19;2.80;99.90
26378;DHT22;14078;50.974;6.786;2024-01-15T13:13:47;2.80;99.90
26378;DHT22;14078;50.974;6.786;2024-01-15T13:16:14;2.70;99.90
26378;DHT22;14078;50.974;6.786;2024-01-15T13:18:40;2.60;99.90
26378;DHT22;14078;50.974;6.786;2024-01-15T13:21:07;2.70;99.90
26378;DHT22;14078;50.974;6.786;2024-01-15T13:23:34;2.60;99.90
26378;DHT22;14078;50.974;6.786;2024-01-15T13:26:01;2.50;99.90
26378;DHT22;14078;50.974;6.786;2024-01-15T13:28:29;2.50;99.90
26378;DHT22;14078;50.974;6.786;2024-01-15T13:30:56;2.50;99.90
26378;DHT22;14078;50.974;6.786;2024-01-15T13:33:23;2.40;99.90
26378;DHT22;14078;50.974;6.786;2024-01-15T13:35:49;2.30;99.90
26378;DHT22;14078;50.974;6.786;2024-01-15T13:38:16;2.30;99.90
26378;DHT22;14078;50.974;6.786;2024-01-15T13:40:43;2.30;99.90
26378;DHT22;14078;50.974;6.786;2024-01-15T13:43:10;2.30;99.90
26378;DHT22;14078;50.974;6.786;2024-01-15T13:45:38;2.30;99.90
26378;DHT22;14078;50.974;6.786;2024-01-15T13:48:06;2.20;99.90
26378;DHT22;14078;50.974;6.786;2024-01-15T13:50:33;2.30;99.90
26378;DHT22;14078;50.974;6.786;2024-01-15T13:53:00;2.40;99.90
26378;DHT22;14078;50.974;6.786;2024-01-15T13:55:27;2.50;99.90
26378;DHT22;14078;50.974;6.786;2024-01-15T13:57:54;2.50;99.90
26378;DHT22;14078;50.974;6.786;2024-01-15T14:00:21;2.40;99.90
26378;DHT22;14078;50.974;6.786;2024-01-15T14:02:50;2.40;99.90
26378;DHT22;14078;50.974;6.786;2024-01-15T14:05:16;2.30;99.90
26378;DHT22;14078;50.974;6.786;2024-01-15T14:07:43;2.20;99.90
26378;DHT22;14078;50.974;6.786;2024-01-15T14:10:10;2.20;99.90
26378;DHT22;14078;50.974;6.786;2024-01-15T14:12:37;2.20;99.90
26378;DHT22;14078;50.974;6.786;2024-01-15T14:15:04;2.10;99.90
26378;DHT22;14078;50.974;6.786;2024-01-15T14:17:31;2.10;99.90
26378;DHT22;14078;50.974;6.786;2024-01-15T14:19:59;2.00;99.90
26378;DHT22;14078;50.974;6.786;2024-01-15T14:22:26;2.00;99.90
26378;DHT22;14078;50.974;6.786;2024-01-15T14:24:52;2.00;99.90
26378;DHT22;14078;50.974;6.786;2024-01-15T14:27:19;2.00;99.90
26378;DHT22;14078;50.974;6.786;2024-01-15T14:29:47;2.00;99.90
26378;DHT22;14078;50.974;6.786;2024-01-15T14:32:13;1.90;99.90
26378;DHT22;14078;50.974;6.786;2024-01-15T14:34:40;1.90;99.90
26378;DHT22;14078;50.974;6.786;2024-01-15T14:37:08;1.90;99.90
26378;DHT22;14078;50.974;6.786;2024-01-15T14:39:35;1.80;99.90
26378;DHT22;14078;50.974;6.786;2024-01-15T14:42:02;1.80;99.90
26378;DHT22;14078;50.974;6.786;2024-01-15T14:44:29;1.80;99.90
26378;DHT22;14078;50.974;6.786;2024-01-15T14:46:55;1.70;99.90
26378;DHT22;14078;50.974;6.786;2024-01-15T14:49:24;1.80;99.90
26378;DHT22;14078;50.974;6.786;2024-01-15T14:51:50;1.80;99.90
26378;DHT22;14078;50.974;6.786;2024-01-15T14:54:18;1.80;99.90
26378;DHT22;14078;50.974;6.786;2024-01-15T14:56:46;1.80;99.90
26378;DHT22;14078;50.974;6.786;2024-01-15T14:59:13;1.80;99.90
26378;DHT22;14078;50.974;6.786;2024-01-15T15:01:39;1.90;99.90
26378;DHT22;14078;50.974;6.786;2024-01-15T15:04:07;1.80;99.90
26378;DHT22;14078;50.974;6.786;2024-01-15T15:06:35;1.80;99.90
26378;DHT22;14078;50.974;6.786;2024-01-15T15:09:02;1.90;99.90
26378;DHT22;14078;50.974;6.786;2024-01-15T15:11:35;1.90;99.90
26378;DHT22;14078;50.974;6.786;2024-01-15T15:14:02;1.90;99.90
26378;DHT22;14078;50.974;6.786;2024-01-15T15:16:29;1.90;99.90
26378;DHT22;14078;50.974;6.786;2024-01-15T15:18:56;1.90;99.90
26378;DHT22;14078;50.974;6.786;2024-01-15T15:21:23;1.80;99.90
26378;DHT22;14078;50.974;6.786;2024-01-15T15:23:50;1.80;99.90
26378;DHT22;14078;50.974;6.786;2024-01-15T15:26:16;1.80;99.90
26378;DHT22;14078;50.974;6.786;2024-01-15T15:28:44;1.80;99.90
26378;DHT22;14078;50.974;6.786;2024-01-15T15:31:11;1.80;99.90
26378;DHT22;14078;50.974;6.786;2024-01-15T15:33:37;1.70;99.90
26378;DHT22;14078;50.974;6.786;2024-01-15T15:36:05;1.80;99.90
26378;DHT22;14078;50.974;6.786;2024-01-15T15:38:31;1.70;99.90
26378;DHT22;14078;50.974;6.786;2024-01-15T15:40:58;1.70;99.90
26378;DHT22;14078;50.974;6.786;2024-01-15T15:43:26;1.60;99.90
26378;DHT22;14078;50.974;6.786;2024-01-15T15:45:54;1.60;99.90